sensor_id;sensor_type;location;lat;lon;timestamp;P1;durP1;ratioP1;P2;durP2;ratioP2
64595;SDS011;51003;51.628;6.670;2023-08-12T12:10:25;4.63;;;4.27;;
64595;SDS011;51003;51.628;6.670;2023-08-12T12:12:50;5.73;;;4.50;;
64595;SDS011;51003;51.628;6.670;2023-08-12T12:15:16;7.00;;;4.70;;
64595;SDS011;51003;51.628;6.670;2023-08-12T12:17:42;4.50;;;4.20;;
64595;SDS011;51003;51.628;6.670;2023-08-12T12:20:10;4.60;;;4.20;;
64595;SDS011;51003;51.628;6.670;2023-08-12T12:22:36;4.57;;;4.27;;
64595;SDS011;51003;51.628;6.670;2023-08-12T12:25:06;3.97;;;3.77;;
64595;SDS011;51003;51.628;6.670;2023-08-12T12:27:32;4.63;;;4.23;;
64595;SDS011;51003;51.628;6.670;2023-08-12T12:29:58;4.40;;;4.00;;
64595;SDS011;51003;51.628;6.670;2023-08-12T12:32:24;4.30;;;4.00;;
64595;SDS011;51003;51.628;6.670;2023-08-12T12:42:09;4.87;;;4.47;;
64595;SDS011;51003;51.628;6.670;2023-08-12T12:44:35;4.50;;;4.20;;
64595;SDS011;51003;51.628;6.670;2023-08-12T12:47:00;3.50;;;3.20;;
64595;SDS011;51003;51.628;6.670;2023-08-12T12:49:27;3.60;;;3.40;;
64595;SDS011;51003;51.628;6.670;2023-08-12T12:51:53;3.20;;;2.90;;
64595;SDS011;51003;51.628;6.670;2023-08-12T12:54:19;2.93;;;2.73;;
64595;SDS011;51003;51.628;6.670;2023-08-12T12:56:44;2.30;;;2.20;;
64595;SDS011;51003;51.628;6.670;2023-08-12T12:59:10;2.20;;;2.10;;
64595;SDS011;51003;51.628;6.670;2023-08-12T13:01:35;2.00;;;1.90;;
64595;SDS011;51003;51.628;6.670;2023-08-12T13:04:00;1.90;;;1.80;;
64595;SDS011;51003;51.628;6.670;2023-08-12T13:06:26;1.97;;;1.87;;
64595;SDS011;51003;51.628;6.670;2023-08-12T13:08:52;2.10;;;2.00;;
64595;SDS011;51003;51.628;6.670;2023-08-12T13:11:18;2.33;;;2.13;;
64595;SDS011;51003;51.628;6.670;2023-08-12T13:13:43;1.97;;;1.87;;
64595;SDS011;51003;51.628;6.670;2023-08-12T13:16:08;2.20;;;2.10;;
64595;SDS011;51003;51.628;6.670;2023-08-12T13:18:34;2.20;;;2.10;;
64595;SDS011;51003;51.628;6.670;2023-08-12T13:20:59;2.40;;;2.20;;
64595;SDS011;51003;51.628;6.670;2023-08-12T13:23:25;2.40;;;2.30;;
64595;SDS011;51003;51.628;6.670;2023-08-12T13:25:50;2.43;;;2.23;;
64595;SDS011;51003;51.628;6.670;2023-08-12T13:28:15;2.47;;;2.30;;
64595;SDS011;51003;51.628;6.670;2023-08-12T13:30:41;2.37;;;2.10;;
64595;SDS011;51003;51.628;6.670;2023-08-12T13:33:06;1.90;;;1.80;;
64595;SDS011;51003;51.628;6.670;2023-08-12T13:35:31;3.70;;;2.07;;
64595;SDS011;51003;51.628;6.670;2023-08-12T13:37:57;2.50;;;2.30;;
64595;SDS011;51003;51.628;6.670;2023-08-12T13:40:22;2.30;;;2.20;;
64595;SDS011;51003;51.628;6.670;2023-08-12T13:42:48;2.17;;;1.90;;
64595;SDS011;51003;51.628;6.670;2023-08-12T13:45:13;2.30;;;2.10;;
64595;SDS011;51003;51.628;6.670;2023-08-12T13:47:39;2.37;;;2.00;;
64595;SDS011;51003;51.628;6.670;2023-08-12T13:50:04;1.90;;;1.80;;
64595;SDS011;51003;51.628;6.670;2023-08-12T13:52:30;4.37;;;1.83;;
64595;SDS011;51003;51.628;6.670;2023-08-12T13:54:55;1.70;;;1.60;;
64595;SDS011;51003;51.628;6.670;2023-08-12T13:57:21;1.90;;;1.80;;
64595;SDS011;51003;51.628;6.670;2023-08-12T13:59:46;1.83;;;1.70;;
64595;SDS011;51003;51.628;6.670;2023-08-12T14:02:12;2.10;;;1.93;;
64595;SDS011;51003;51.628;6.670;2023-08-12T14:04:38;2.23;;;1.77;;
64595;SDS011;51003;51.628;6.670;2023-08-12T14:07:04;1.80;;;1.70;;
64595;SDS011;51003;51.628;6.670;2023-08-12T14:09:29;1.77;;;1.67;;
64595;SDS011;51003;51.628;6.670;2023-08-12T14:11:55;1.83;;;1.73;;
64595;SDS011;51003;51.628;6.670;2023-08-12T14:14:20;1.70;;;1.60;;
64595;SDS011;51003;51.628;6.670;2023-08-12T14:16:46;1.90;;;1.70;;
64595;SDS011;51003;51.628;6.670;2023-08-12T14:19:11;2.50;;;1.70;;
64595;SDS011;51003;51.628;6.670;2023-08-12T14:21:36;3.10;;;1.53;;
64595;SDS011;51003;51.628;6.670;2023-08-12T14:24:02;4.33;;;1.57;;
64595;SDS011;51003;51.628;6.670;2023-08-12T14:26:27;4.50;;;1.97;;
64595;SDS011;51003;51.628;6.670;2023-08-12T14:28:52;1.80;;;1.70;;
64595;SDS011;51003;51.628;6.670;2023-08-12T14:31:18;1.60;;;1.50;;
64595;SDS011;51003;51.628;6.670;2023-08-12T14:33:44;4.13;;;2.00;;
64595;SDS011;51003;51.628;6.670;2023-08-12T14:36:09;2.57;;;1.70;;
64595;SDS011;51003;51.628;6.670;2023-08-12T14:38:34;1.93;;;1.80;;
64595;SDS011;51003;51.628;6.670;2023-08-12T14:41:00;2.60;;;1.70;;
64595;SDS011;51003;51.628;6.670;2023-08-12T14:43:25;1.90;;;1.80;;
64595;SDS011;51003;51.628;6.670;2023-08-12T14:45:51;1.80;;;1.70;;
64595;SDS011;51003;51.628;6.670;2023-08-12T14:48:16;1.77;;;1.63;;
64595;SDS011;51003;51.628;6.670;2023-08-12T14:50:43;2.97;;;1.77;;
64595;SDS011;51003;51.628;6.670;2023-08-12T14:53:09;3.03;;;1.90;;
64595;SDS011;51003;51.628;6.670;2023-08-12T14:55:35;1.83;;;1.60;;
64595;SDS011;51003;51.628;6.670;2023-08-12T14:58:01;3.20;;;1.90;;
64595;SDS011;51003;51.628;6.670;2023-08-12T15:00:27;2.40;;;1.73;;
64595;SDS011;51003;51.628;6.670;2023-08-12T15:02:52;1.90;;;1.80;;
64595;SDS011;51003;51.628;6.670;2023-08-12T15:05:18;3.00;;;1.80;;
64595;SDS011;51003;51.628;6.670;2023-08-12T15:07:43;2.50;;;1.70;;
64595;SDS011;51003;51.628;6.670;2023-08-12T15:10:09;1.67;;;1.50;;
64595;SDS011;51003;51.628;6.670;2023-08-12T15:12:34;3.13;;;1.80;;
64595;SDS011;51003;51.628;6.670;2023-08-12T15:15:00;4.30;;;1.83;;
64595;SDS011;51003;51.628;6.670;2023-08-12T15:17:25;2.60;;;2.20;;
64595;SDS011;51003;51.628;6.670;2023-08-12T15:19:50;1.90;;;1.80;;
64595;SDS011;51003;51.628;6.670;2023-08-12T15:22:16;2.80;;;1.93;;
64595;SDS011;51003;51.628;6.670;2023-08-12T15:24:42;2.10;;;1.90;;
64595;SDS011;51003;51.628;6.670;2023-08-12T15:27:08;4.73;;;1.93;;
64595;SDS011;51003;51.628;6.670;2023-08-12T15:29:34;3.40;;;2.00;;
64595;SDS011;51003;51.628;6.670;2023-08-12T15:31:59;3.20;;;1.83;;
64595;SDS011;51003;51.628;6.670;2023-08-12T15:34:25;2.00;;;1.90;;
64595;SDS011;51003;51.628;6.670;2023-08-12T15:36:52;2.70;;;1.90;;
64595;SDS011;51003;51.628;6.670;2023-08-12T15:39:17;3.80;;;2.00;;
64595;SDS011;51003;51.628;6.670;2023-08-12T15:41:43;5.23;;;2.07;;
64595;SDS011;51003;51.628;6.670;2023-08-12T15:44:09;2.17;;;2.00;;
64595;SDS011;51003;51.628;6.670;2023-08-12T15:46:35;2.20;;;2.00;;
64595;SDS011;51003;51.628;6.670;2023-08-12T15:49:02;5.73;;;2.50;;
64595;SDS011;51003;51.628;6.670;2023-08-12T15:51:30;4.10;;;2.47;;
64595;SDS011;51003;51.628;6.670;2023-08-12T15:53:55;2.73;;;2.10;;
64595;SDS011;51003;51.628;6.670;2023-08-12T15:56:20;3.87;;;2.33;;
64595;SDS011;51003;51.628;6.670;2023-08-12T15:58:46;3.27;;;2.20;;
64595;SDS011;51003;51.628;6.670;2023-08-12T16:01:11;3.80;;;2.67;;
64595;SDS011;51003;51.628;6.670;2023-08-12T16:03:37;3.10;;;2.77;;
64595;SDS011;51003;51.628;6.670;2023-08-12T16:06:03;3.97;;;2.50;;
64595;SDS011;51003;51.628;6.670;2023-08-12T16:08:29;4.80;;;2.30;;
64595;SDS011;51003;51.628;6.670;2023-08-12T16:10:54;3.17;;;2.50;;
64595;SDS011;51003;51.628;6.670;2023-08-12T16:13:20;2.53;;;1.90;;
64595;SDS011;51003;51.628;6.670;2023-08-12T16:15:45;2.40;;;2.10;;
64595;SDS011;51003;51.628;6.670;2023-08-12T16:18:11;4.23;;;2.10;;
64595;SDS011;51003;51.628;6.670;2023-08-12T16:20:37;3.30;;;2.37;;
64595;SDS011;51003;51.628;6.670;2023-08-12T16:23:02;4.60;;;2.80;;
64595;SDS011;51003;51.628;6.670;2023-08-12T16:25:29;3.03;;;2.10;;
64595;SDS011;51003;51.628;6.670;2023-08-12T16:27:55;2.20;;;2.10;;
64595;SDS011;51003;51.628;6.670;2023-08-12T16:30:21;6.13;;;2.40;;
64595;SDS011;51003;51.628;6.670;2023-08-12T16:32:46;4.03;;;2.50;;
64595;SDS011;51003;51.628;6.670;2023-08-12T16:35:11;2.53;;;2.30;;
64595;SDS011;51003;51.628;6.670;2023-08-12T16:37:37;2.93;;;2.63;;
64595;SDS011;51003;51.628;6.670;2023-08-12T16:40:03;3.80;;;2.60;;
64595;SDS011;51003;51.628;6.670;2023-08-12T16:42:29;3.20;;;2.30;;
64595;SDS011;51003;51.628;6.670;2023-08-12T16:44:54;4.03;;;2.73;;
64595;SDS011;51003;51.628;6.670;2023-08-12T16:47:20;5.00;;;2.97;;
64595;SDS011;51003;51.628;6.670;2023-08-12T16:49:46;6.73;;;3.30;;
64595;SDS011;51003;51.628;6.670;2023-08-12T16:52:12;3.27;;;2.60;;
64595;SDS011;51003;51.628;6.670;2023-08-12T16:54:39;2.70;;;2.50;;
64595;SDS011;51003;51.628;6.670;2023-08-12T16:57:05;4.00;;;3.00;;
64595;SDS011;51003;51.628;6.670;2023-08-12T16:59:30;4.60;;;2.93;;
64595;SDS011;51003;51.628;6.670;2023-08-12T17:01:56;3.30;;;2.90;;
64595;SDS011;51003;51.628;6.670;2023-08-12T17:04:21;4.10;;;3.20;;
64595;SDS011;51003;51.628;6.670;2023-08-12T17:06:47;3.27;;;2.93;;
64595;SDS011;51003;51.628;6.670;2023-08-12T17:09:13;3.87;;;2.93;;
64595;SDS011;51003;51.628;6.670;2023-08-12T17:11:38;3.47;;;3.10;;
64595;SDS011;51003;51.628;6.670;2023-08-12T17:14:04;3.13;;;2.90;;
64595;SDS011;51003;51.628;6.670;2023-08-12T17:16:30;4.10;;;3.70;;
64595;SDS011;51003;51.628;6.670;2023-08-12T17:18:56;6.37;;;3.30;;
64595;SDS011;51003;51.628;6.670;2023-08-12T17:21:21;5.90;;;3.00;;
64595;SDS011;51003;51.628;6.670;2023-08-12T17:23:47;5.30;;;3.60;;
64595;SDS011;51003;51.628;6.670;2023-08-12T17:26:13;7.87;;;3.47;;
64595;SDS011;51003;51.628;6.670;2023-08-12T17:28:38;10.83;;;4.10;;
64595;SDS011;51003;51.628;6.670;2023-08-12T17:31:04;6.43;;;3.80;;
64595;SDS011;51003;51.628;6.670;2023-08-12T17:33:31;5.40;;;4.27;;
64595;SDS011;51003;51.628;6.670;2023-08-12T17:35:56;5.70;;;4.50;;
64595;SDS011;51003;51.628;6.670;2023-08-12T17:38:22;4.90;;;4.50;;
64595;SDS011;51003;51.628;6.670;2023-08-12T17:40:48;7.90;;;4.30;;
64595;SDS011;51003;51.628;6.670;2023-08-12T17:43:14;5.20;;;4.60;;
64595;SDS011;51003;51.628;6.670;2023-08-12T17:45:40;4.93;;;4.03;;
64595;SDS011;51003;51.628;6.670;2023-08-12T17:48:06;4.90;;;4.40;;
64595;SDS011;51003;51.628;6.670;2023-08-12T17:50:31;4.77;;;4.33;;
64595;SDS011;51003;51.628;6.670;2023-08-12T17:55:43;7.70;;;4.50;;
64595;SDS011;51003;51.628;6.670;2023-08-12T17:58:09;5.57;;;4.50;;
64595;SDS011;51003;51.628;6.670;2023-08-12T18:00:35;7.40;;;4.90;;
64595;SDS011;51003;51.628;6.670;2023-08-12T18:03:01;7.60;;;4.73;;
64595;SDS011;51003;51.628;6.670;2023-08-12T18:05:26;7.17;;;4.67;;
64595;SDS011;51003;51.628;6.670;2023-08-12T18:07:52;5.20;;;4.60;;
64595;SDS011;51003;51.628;6.670;2023-08-12T18:10:18;5.83;;;4.60;;
64595;SDS011;51003;51.628;6.670;2023-08-12T18:12:44;5.83;;;4.90;;
64595;SDS011;51003;51.628;6.670;2023-08-12T18:15:10;5.30;;;4.90;;
64595;SDS011;51003;51.628;6.670;2023-08-12T18:17:35;6.13;;;4.43;;
64595;SDS011;51003;51.628;6.670;2023-08-12T18:20:01;9.23;;;4.70;;
64595;SDS011;51003;51.628;6.670;2023-08-12T18:22:29;6.23;;;4.30;;
64595;SDS011;51003;51.628;6.670;2023-08-12T18:24:55;5.57;;;4.50;;
64595;SDS011;51003;51.628;6.670;2023-08-12T18:27:21;6.00;;;4.60;;
64595;SDS011;51003;51.628;6.670;2023-08-12T18:29:46;6.30;;;4.40;;
64595;SDS011;51003;51.628;6.670;2023-08-12T18:32:12;10.60;;;5.20;;
64595;SDS011;51003;51.628;6.670;2023-08-12T18:34:38;6.90;;;5.20;;
64595;SDS011;51003;51.628;6.670;2023-08-12T18:37:04;8.70;;;5.23;;
64595;SDS011;51003;51.628;6.670;2023-08-12T18:39:38;11.20;;;5.40;;
64595;SDS011;51003;51.628;6.670;2023-08-12T18:42:08;10.50;;;5.53;;
64595;SDS011;51003;51.628;6.670;2023-08-12T18:44:35;6.53;;;5.50;;
64595;SDS011;51003;51.628;6.670;2023-08-12T18:47:01;10.47;;;5.37;;
64595;SDS011;51003;51.628;6.670;2023-08-12T18:49:26;8.10;;;5.37;;
64595;SDS011;51003;51.628;6.670;2023-08-12T18:51:52;6.23;;;5.43;;
64595;SDS011;51003;51.628;6.670;2023-08-12T18:54:18;7.97;;;5.70;;
64595;SDS011;51003;51.628;6.670;2023-08-12T18:56:44;8.90;;;5.67;;
64595;SDS011;51003;51.628;6.670;2023-08-12T18:59:09;7.73;;;6.20;;
64595;SDS011;51003;51.628;6.670;2023-08-12T19:01:35;14.33;;;6.00;;
64595;SDS011;51003;51.628;6.670;2023-08-12T19:04:01;6.40;;;5.40;;
64595;SDS011;51003;51.628;6.670;2023-08-12T19:06:29;8.83;;;5.77;;
64595;SDS011;51003;51.628;6.670;2023-08-12T19:08:55;5.30;;;4.80;;
64595;SDS011;51003;51.628;6.670;2023-08-12T19:11:36;7.53;;;5.13;;
64595;SDS011;51003;51.628;6.670;2023-08-12T19:14:02;6.30;;;5.70;;
64595;SDS011;51003;51.628;6.670;2023-08-12T19:16:28;6.00;;;4.90;;
64595;SDS011;51003;51.628;6.670;2023-08-12T19:19:23;7.03;;;5.47;;
64595;SDS011;51003;51.628;6.670;2023-08-12T19:21:49;8.77;;;5.20;;
64595;SDS011;51003;51.628;6.670;2023-08-12T19:24:16;7.37;;;5.50;;
64595;SDS011;51003;51.628;6.670;2023-08-12T19:26:42;6.00;;;5.20;;
64595;SDS011;51003;51.628;6.670;2023-08-12T19:29:08;8.20;;;5.93;;
64595;SDS011;51003;51.628;6.670;2023-08-12T19:31:34;6.10;;;5.33;;
64595;SDS011;51003;51.628;6.670;2023-08-12T19:34:00;8.13;;;5.73;;
64595;SDS011;51003;51.628;6.670;2023-08-12T19:36:25;8.23;;;4.40;;
64595;SDS011;51003;51.628;6.670;2023-08-12T19:38:51;10.10;;;4.80;;
64595;SDS011;51003;51.628;6.670;2023-08-12T19:41:17;4.73;;;4.33;;
64595;SDS011;51003;51.628;6.670;2023-08-12T19:43:43;6.47;;;4.00;;
64595;SDS011;51003;51.628;6.670;2023-08-12T19:46:08;7.23;;;5.17;;
64595;SDS011;51003;51.628;6.670;2023-08-12T19:48:35;4.40;;;4.00;;
64595;SDS011;51003;51.628;6.670;2023-08-12T19:51:01;4.43;;;3.70;;
64595;SDS011;51003;51.628;6.670;2023-08-12T19:53:26;4.93;;;3.70;;
64595;SDS011;51003;51.628;6.670;2023-08-12T19:55:52;4.67;;;4.00;;
64595;SDS011;51003;51.628;6.670;2023-08-12T19:58:18;6.37;;;4.30;;
64595;SDS011;51003;51.628;6.670;2023-08-12T20:00:44;6.80;;;4.50;;
64595;SDS011;51003;51.628;6.670;2023-08-12T20:03:10;7.87;;;5.50;;
64595;SDS011;51003;51.628;6.670;2023-08-12T20:05:36;6.13;;;5.53;;
64595;SDS011;51003;51.628;6.670;2023-08-12T20:08:01;8.87;;;5.10;;
64595;SDS011;51003;51.628;6.670;2023-08-12T20:10:27;5.90;;;4.90;;
64595;SDS011;51003;51.628;6.670;2023-08-12T20:12:53;6.93;;;5.13;;
64595;SDS011;51003;51.628;6.670;2023-08-12T20:15:19;8.77;;;5.00;;
64595;SDS011;51003;51.628;6.670;2023-08-12T20:17:45;5.97;;;4.27;;
64595;SDS011;51003;51.628;6.670;2023-08-12T20:20:12;8.50;;;4.70;;
64595;SDS011;51003;51.628;6.670;2023-08-12T20:22:41;4.50;;;4.20;;
64595;SDS011;51003;51.628;6.670;2023-08-12T20:25:08;5.47;;;4.33;;
64595;SDS011;51003;51.628;6.670;2023-08-12T20:27:34;9.90;;;4.50;;
64595;SDS011;51003;51.628;6.670;2023-08-12T20:30:00;5.90;;;4.87;;
64595;SDS011;51003;51.628;6.670;2023-08-12T20:32:26;6.73;;;4.63;;
64595;SDS011;51003;51.628;6.670;2023-08-12T20:34:55;8.23;;;5.07;;
64595;SDS011;51003;51.628;6.670;2023-08-12T20:37:21;6.17;;;5.37;;
64595;SDS011;51003;51.628;6.670;2023-08-12T20:39:47;6.83;;;4.63;;
64595;SDS011;51003;51.628;6.670;2023-08-12T20:42:13;7.83;;;5.00;;
64595;SDS011;51003;51.628;6.670;2023-08-12T20:44:39;10.50;;;4.33;;
64595;SDS011;51003;51.628;6.670;2023-08-12T20:47:05;7.50;;;4.70;;
64595;SDS011;51003;51.628;6.670;2023-08-12T20:49:31;6.60;;;4.97;;
64595;SDS011;51003;51.628;6.670;2023-08-12T20:51:56;8.67;;;4.87;;
64595;SDS011;51003;51.628;6.670;2023-08-12T20:54:23;9.53;;;4.87;;
64595;SDS011;51003;51.628;6.670;2023-08-12T20:56:49;8.93;;;4.80;;
64595;SDS011;51003;51.628;6.670;2023-08-12T20:59:15;4.97;;;4.13;;
64595;SDS011;51003;51.628;6.670;2023-08-12T21:01:41;13.23;;;4.80;;
64595;SDS011;51003;51.628;6.670;2023-08-12T21:04:07;10.10;;;4.93;;
64595;SDS011;51003;51.628;6.670;2023-08-12T21:06:33;9.83;;;5.03;;
64595;SDS011;51003;51.628;6.670;2023-08-12T21:08:58;9.93;;;5.43;;
64595;SDS011;51003;51.628;6.670;2023-08-12T21:11:24;14.93;;;8.40;;
64595;SDS011;51003;51.628;6.670;2023-08-12T21:13:50;10.57;;;8.60;;
64595;SDS011;51003;51.628;6.670;2023-08-12T21:16:16;11.50;;;9.07;;
64595;SDS011;51003;51.628;6.670;2023-08-12T21:18:41;7.47;;;6.30;;
64595;SDS011;51003;51.628;6.670;2023-08-12T21:21:07;12.40;;;6.70;;
64595;SDS011;51003;51.628;6.670;2023-08-12T21:23:33;10.60;;;5.90;;
64595;SDS011;51003;51.628;6.670;2023-08-12T21:25:59;6.47;;;5.40;;
64595;SDS011;51003;51.628;6.670;2023-08-12T21:28:24;7.50;;;5.10;;
64595;SDS011;51003;51.628;6.670;2023-08-12T21:30:50;5.83;;;5.07;;
64595;SDS011;51003;51.628;6.670;2023-08-12T21:33:16;12.90;;;5.47;;
64595;SDS011;51003;51.628;6.670;2023-08-12T21:35:42;6.57;;;4.90;;
64595;SDS011;51003;51.628;6.670;2023-08-12T21:38:08;7.27;;;4.93;;
64595;SDS011;51003;51.628;6.670;2023-08-12T21:40:33;7.13;;;5.00;;
64595;SDS011;51003;51.628;6.670;2023-08-12T21:42:58;11.33;;;5.40;;
64595;SDS011;51003;51.628;6.670;2023-08-12T21:45:24;5.40;;;4.57;;
64595;SDS011;51003;51.628;6.670;2023-08-12T21:47:50;10.80;;;7.27;;
64595;SDS011;51003;51.628;6.670;2023-08-12T21:50:16;11.17;;;8.30;;
64595;SDS011;51003;51.628;6.670;2023-08-12T21:52:42;11.20;;;8.60;;
64595;SDS011;51003;51.628;6.670;2023-08-12T21:55:07;12.20;;;7.67;;
64595;SDS011;51003;51.628;6.670;2023-08-12T21:57:33;12.70;;;8.03;;
64595;SDS011;51003;51.628;6.670;2023-08-12T21:59:59;10.23;;;8.20;;
64595;SDS011;51003;51.628;6.670;2023-08-12T22:02:25;16.13;;;8.97;;
64595;SDS011;51003;51.628;6.670;2023-08-12T22:04:52;17.20;;;8.70;;
64595;SDS011;51003;51.628;6.670;2023-08-12T22:07:18;9.57;;;7.97;;
64595;SDS011;51003;51.628;6.670;2023-08-12T22:09:43;12.83;;;9.00;;
64595;SDS011;51003;51.628;6.670;2023-08-12T22:12:09;13.63;;;8.47;;
64595;SDS011;51003;51.628;6.670;2023-08-12T22:14:37;10.00;;;8.40;;
64595;SDS011;51003;51.628;6.670;2023-08-12T22:17:03;13.53;;;8.07;;
64595;SDS011;51003;51.628;6.670;2023-08-12T22:19:29;11.00;;;7.77;;
64595;SDS011;51003;51.628;6.670;2023-08-12T22:21:55;11.20;;;7.67;;
64595;SDS011;51003;51.628;6.670;2023-08-12T22:24:21;9.73;;;8.07;;
64595;SDS011;51003;51.628;6.670;2023-08-12T22:26:46;8.43;;;7.27;;
64595;SDS011;51003;51.628;6.670;2023-08-12T22:29:12;11.03;;;6.70;;
64595;SDS011;51003;51.628;6.670;2023-08-12T22:31:39;7.90;;;6.10;;
64595;SDS011;51003;51.628;6.670;2023-08-12T22:34:04;10.07;;;6.47;;
64595;SDS011;51003;51.628;6.670;2023-08-12T22:36:32;8.07;;;5.47;;
64595;SDS011;51003;51.628;6.670;2023-08-12T22:38:58;8.57;;;5.60;;
64595;SDS011;51003;51.628;6.670;2023-08-12T22:41:23;8.23;;;5.27;;
64595;SDS011;51003;51.628;6.670;2023-08-12T22:43:49;5.60;;;4.60;;
64595;SDS011;51003;51.628;6.670;2023-08-12T22:46:15;8.37;;;4.50;;
64595;SDS011;51003;51.628;6.670;2023-08-12T22:48:40;6.87;;;4.70;;
64595;SDS011;51003;51.628;6.670;2023-08-12T22:51:06;8.17;;;4.80;;
64595;SDS011;51003;51.628;6.670;2023-08-12T22:53:32;11.80;;;5.17;;
64595;SDS011;51003;51.628;6.670;2023-08-12T22:55:57;12.70;;;5.03;;
64595;SDS011;51003;51.628;6.670;2023-08-12T22:58:23;8.53;;;4.90;;
64595;SDS011;51003;51.628;6.670;2023-08-12T23:00:48;8.93;;;5.73;;
64595;SDS011;51003;51.628;6.670;2023-08-12T23:03:14;9.13;;;5.80;;
64595;SDS011;51003;51.628;6.670;2023-08-12T23:05:40;10.10;;;8.30;;
64595;SDS011;51003;51.628;6.670;2023-08-12T23:08:05;13.60;;;9.60;;
64595;SDS011;51003;51.628;6.670;2023-08-12T23:10:31;12.13;;;9.70;;
64595;SDS011;51003;51.628;6.670;2023-08-12T23:12:57;15.00;;;10.97;;
64595;SDS011;51003;51.628;6.670;2023-08-12T23:15:22;15.80;;;11.20;;
64595;SDS011;51003;51.628;6.670;2023-08-12T23:17:48;16.10;;;12.30;;
64595;SDS011;51003;51.628;6.670;2023-08-12T23:20:14;20.13;;;12.90;;
64595;SDS011;51003;51.628;6.670;2023-08-12T23:22:39;20.77;;;12.27;;
64595;SDS011;51003;51.628;6.670;2023-08-12T23:25:05;18.00;;;11.87;;
64595;SDS011;51003;51.628;6.670;2023-08-12T23:27:31;17.47;;;10.90;;
64595;SDS011;51003;51.628;6.670;2023-08-12T23:29:56;15.07;;;10.10;;
64595;SDS011;51003;51.628;6.670;2023-08-12T23:32:22;17.83;;;10.27;;
64595;SDS011;51003;51.628;6.670;2023-08-12T23:34:48;16.57;;;9.50;;
64595;SDS011;51003;51.628;6.670;2023-08-12T23:37:13;15.77;;;8.63;;
64595;SDS011;51003;51.628;6.670;2023-08-12T23:39:39;14.10;;;8.40;;
64595;SDS011;51003;51.628;6.670;2023-08-12T23:42:05;18.50;;;9.40;;
64595;SDS011;51003;51.628;6.670;2023-08-12T23:44:31;13.90;;;8.67;;
64595;SDS011;51003;51.628;6.670;2023-08-12T23:46:57;13.10;;;8.63;;
64595;SDS011;51003;51.628;6.670;2023-08-12T23:49:23;18.40;;;8.53;;
64595;SDS011;51003;51.628;6.670;2023-08-12T23:51:49;13.03;;;7.67;;
64595;SDS011;51003;51.628;6.670;2023-08-12T23:54:14;11.80;;;7.60;;
64595;SDS011;51003;51.628;6.670;2023-08-12T23:56:40;13.80;;;7.80;;
64595;SDS011;51003;51.628;6.670;2023-08-12T23:59:05;12.30;;;7.90;;
